createdAt,value
2018-05-14T00:02:25.825Z,10.40
2018-05-14T00:04:53.231Z,10.45
2018-05-14T00:07:20.639Z,10.50
2018-05-14T00:09:48.771Z,10.63
2018-05-14T00:14:43.327Z,10.39
2018-05-14T00:17:10.763Z,10.39
2018-05-14T00:19:38.213Z,10.38
2018-05-14T00:22:05.647Z,10.50
2018-05-14T00:24:33.076Z,10.53
2018-05-14T00:27:02.531Z,10.62
2018-05-14T00:29:29.923Z,10.63
2018-05-14T00:31:57.474Z,10.65
2018-05-14T00:34:24.875Z,10.63
2018-05-14T00:36:52.311Z,10.53
2018-05-14T00:39:19.739Z,10.49
2018-05-14T00:41:47.173Z,10.54
2018-05-14T00:44:14.631Z,10.58
2018-05-14T00:46:42.084Z,10.56
2018-05-14T00:49:09.481Z,10.57
2018-05-14T00:51:36.884Z,10.67
2018-05-14T00:54:04.975Z,10.74
2018-05-14T00:56:32.396Z,10.67
2018-05-14T00:58:59.975Z,10.69
2018-05-14T01:01:28.575Z,10.75
2018-05-14T01:03:56.005Z,10.83
2018-05-14T01:06:24.824Z,10.85
2018-05-14T01:08:52.218Z,10.89
2018-05-14T01:11:19.672Z,10.95
2018-05-14T01:13:47.068Z,10.99
2018-05-14T01:16:14.641Z,11.00
2018-05-14T01:18:42.067Z,11.00
2018-05-14T01:21:10.335Z,11.02
2018-05-14T01:23:37.782Z,10.98
2018-05-14T01:26:05.216Z,10.89
2018-05-14T01:28:32.700Z,10.98
2018-05-14T01:31:00.164Z,10.99
2018-05-14T01:33:27.746Z,11.04
2018-05-14T01:35:55.199Z,11.06
2018-05-14T01:38:23.989Z,11.02
2018-05-14T01:40:52.145Z,10.92
2018-05-14T01:43:19.595Z,10.94
2018-05-14T01:45:47.015Z,11.00
2018-05-14T01:48:14.456Z,11.06
2018-05-14T01:50:41.948Z,11.06
2018-05-14T01:53:09.420Z,11.03
2018-05-14T01:55:37.932Z,11.06
2018-05-14T01:58:05.354Z,11.04
2018-05-14T02:00:34.499Z,11.02
2018-05-14T02:03:01.934Z,10.89
2018-05-14T02:05:29.322Z,10.79
2018-05-14T02:07:57.754Z,10.59
2018-05-14T02:10:25.166Z,10.56
2018-05-14T02:12:53.147Z,10.45
2018-05-14T02:15:20.541Z,10.40
2018-05-14T02:17:47.930Z,10.40
2018-05-14T02:20:15.390Z,10.33
2018-05-14T02:22:43.204Z,10.24
2018-05-14T02:25:10.627Z,10.24
2018-05-14T02:27:38.046Z,10.28
2018-05-14T02:30:06.219Z,10.47
2018-05-14T02:32:34.461Z,10.60
2018-05-14T02:35:01.939Z,10.66
2018-05-14T02:37:29.666Z,10.71
2018-05-14T02:39:57.084Z,10.54
2018-05-14T02:42:24.525Z,10.45
2018-05-14T02:44:52.127Z,10.27
2018-05-14T02:47:20.581Z,10.17
2018-05-14T02:49:48.060Z,10.08
2018-05-14T02:52:16.120Z,10.10
2018-05-14T02:54:43.637Z,10.18
2018-05-14T02:57:11.087Z,10.16
2018-05-14T02:59:38.979Z,10.21
2018-05-14T03:02:06.530Z,10.33
2018-05-14T03:04:33.962Z,10.45
2018-05-14T03:07:01.963Z,10.48
2018-05-14T03:09:29.557Z,10.54
2018-05-14T03:11:56.976Z,10.47
2018-05-14T03:14:24.441Z,10.41
2018-05-14T03:16:51.854Z,10.42
2018-05-14T03:19:19.307Z,10.47
2018-05-14T03:21:46.765Z,10.43
2018-05-14T03:24:14.207Z,10.43
2018-05-14T03:26:41.641Z,10.33
2018-05-14T03:29:09.092Z,10.33
2018-05-14T03:31:36.663Z,10.27
2018-05-14T03:34:04.090Z,10.26
2018-05-14T03:36:31.576Z,10.26
2018-05-14T03:38:59.016Z,10.30
2018-05-14T03:41:26.447Z,10.31
2018-05-14T03:43:53.894Z,10.26
2018-05-14T03:46:21.320Z,10.26
2018-05-14T03:48:48.710Z,10.32
2018-05-14T03:51:16.337Z,10.26
2018-05-14T03:53:43.799Z,10.15
2018-05-14T03:56:11.206Z,10.14
2018-05-14T03:58:50.522Z,10.20
2018-05-14T04:01:18.017Z,10.27
2018-05-14T04:03:57.306Z,10.32
2018-05-14T04:06:37.635Z,10.27
2018-05-14T04:09:06.038Z,10.20
2018-05-14T04:11:33.432Z,10.07
2018-05-14T04:14:00.899Z,10.07
2018-05-14T04:16:28.397Z,9.99
2018-05-14T04:18:55.799Z,10.06
2018-05-14T04:21:23.274Z,10.05
2018-05-14T04:23:50.662Z,10.07
2018-05-14T04:26:18.096Z,10.02
2018-05-14T04:28:45.524Z,9.97
2018-05-14T04:31:12.928Z,9.91
2018-05-14T04:33:40.389Z,9.91
2018-05-14T04:36:07.774Z,9.93
2018-05-14T04:38:36.055Z,9.95
2018-05-14T04:41:03.483Z,10.04
2018-05-14T04:46:10.843Z,10.14
2018-05-14T04:48:39.509Z,10.08
2018-05-14T04:51:06.890Z,9.99
2018-05-14T04:53:34.341Z,10.04
2018-05-14T04:56:01.744Z,10.07
2018-05-14T04:58:29.168Z,10.02
2018-05-14T05:00:56.636Z,10.07
2018-05-14T05:03:24.097Z,10.14
2018-05-14T05:05:51.561Z,10.30
2018-05-14T05:08:18.968Z,10.28
2018-05-14T05:10:46.386Z,10.26
2018-05-14T05:13:13.870Z,10.35
2018-05-14T05:15:42.990Z,10.36
2018-05-14T05:18:10.423Z,10.44
2018-05-14T05:20:37.851Z,10.42
2018-05-14T05:23:05.296Z,10.46
2018-05-14T05:25:32.731Z,10.70
2018-05-14T05:28:00.325Z,10.44
2018-05-14T05:30:27.773Z,10.70
2018-05-14T05:32:55.453Z,10.80
2018-05-14T05:35:22.911Z,10.88
2018-05-14T05:37:50.399Z,10.96
2018-05-14T05:40:17.799Z,11.04
2018-05-14T05:42:45.208Z,11.00
2018-05-14T05:45:12.650Z,10.66
2018-05-14T05:47:40.051Z,10.67
2018-05-14T05:50:07.537Z,10.47
2018-05-14T05:52:34.987Z,10.46
2018-05-14T05:55:02.403Z,10.57
2018-05-14T05:57:29.851Z,10.77
2018-05-14T05:59:57.259Z,10.86
2018-05-14T06:02:24.677Z,11.00
2018-05-14T06:04:52.071Z,11.18
2018-05-14T06:07:19.518Z,11.37
2018-05-14T06:09:46.932Z,11.50
2018-05-14T06:12:14.575Z,11.63
2018-05-14T06:14:41.996Z,11.61
2018-05-14T06:17:09.384Z,11.68
2018-05-14T06:19:36.830Z,11.51
2018-05-14T06:22:04.283Z,11.51
2018-05-14T06:24:31.823Z,11.47
2018-05-14T06:26:59.290Z,11.41
2018-05-14T06:29:30.466Z,11.55
2018-05-14T06:31:57.947Z,11.57
2018-05-14T06:34:25.444Z,11.57
2018-05-14T06:36:52.894Z,11.74
2018-05-14T06:39:20.341Z,11.98
2018-05-14T06:41:50.033Z,12.04
2018-05-14T06:44:17.560Z,12.17
2018-05-14T06:46:44.949Z,12.29
2018-05-14T06:49:14.024Z,12.26
2018-05-14T06:54:15.917Z,12.28
2018-05-14T06:56:43.413Z,12.18
2018-05-14T06:59:10.885Z,12.18
2018-05-14T07:01:38.315Z,12.28
2018-05-14T07:04:05.715Z,12.50
2018-05-14T07:06:33.162Z,12.87
2018-05-14T07:09:00.719Z,13.11
2018-05-14T07:11:28.160Z,13.27
2018-05-14T07:13:55.792Z,13.10
2018-05-14T07:16:24.513Z,13.15
2018-05-14T07:18:52.381Z,13.54
2018-05-14T07:21:19.818Z,13.84
2018-05-14T07:23:47.704Z,13.94
2018-05-14T07:26:15.093Z,14.00
2018-05-14T07:28:43.707Z,13.86
2018-05-14T07:31:12.063Z,13.97
2018-05-14T07:33:39.528Z,14.60
2018-05-14T07:36:08.078Z,14.68
2018-05-14T07:38:35.541Z,14.91
2018-05-14T07:41:03.084Z,15.10
2018-05-14T07:43:30.480Z,15.39
2018-05-14T07:45:57.969Z,16.01
2018-05-14T07:48:27.985Z,16.33
2018-05-14T07:50:55.460Z,16.37
2018-05-14T07:53:23.601Z,16.52
2018-05-14T07:55:51.144Z,16.90
2018-05-14T07:58:18.614Z,17.46
2018-05-14T08:00:46.044Z,17.80
2018-05-14T08:03:14.258Z,17.72
2018-05-14T08:05:42.158Z,17.93
2018-05-14T08:08:09.539Z,17.41
2018-05-14T08:10:36.972Z,16.85
2018-05-14T08:13:04.461Z,17.00
2018-05-14T08:15:31.907Z,16.82
2018-05-14T08:17:59.342Z,16.27
2018-05-14T08:20:26.830Z,15.83
2018-05-14T08:22:54.321Z,16.29
2018-05-14T08:25:21.797Z,16.73
2018-05-14T08:27:49.224Z,16.30
2018-05-14T08:30:16.705Z,16.55
2018-05-14T08:32:44.184Z,16.89
2018-05-14T08:35:11.958Z,16.96
2018-05-14T08:37:39.368Z,17.18
2018-05-14T08:40:06.836Z,17.91
2018-05-14T08:42:34.300Z,18.28
2018-05-14T08:45:03.601Z,18.46
2018-05-14T08:47:31.076Z,18.16
2018-05-14T08:49:58.529Z,17.53
2018-05-14T08:52:25.996Z,17.30
2018-05-14T08:54:53.401Z,17.29
2018-05-14T08:57:20.833Z,16.76
2018-05-14T08:59:48.289Z,16.46
2018-05-14T09:02:15.752Z,16.35
2018-05-14T09:04:43.189Z,16.76
2018-05-14T09:07:10.632Z,16.99
2018-05-14T09:09:38.030Z,17.35
2018-05-14T09:12:06.160Z,17.81
2018-05-14T09:14:33.647Z,17.86
2018-05-14T09:17:01.115Z,17.62
2018-05-14T09:19:28.647Z,17.49
2018-05-14T09:21:56.023Z,17.32
2018-05-14T09:24:23.457Z,17.00
2018-05-14T09:26:51.609Z,16.82
2018-05-14T09:29:19.047Z,16.73
2018-05-14T09:31:46.481Z,16.69
2018-05-14T09:34:13.975Z,16.59
2018-05-14T09:36:41.725Z,16.44
2018-05-14T09:39:09.299Z,16.24
2018-05-14T09:41:36.745Z,16.09
2018-05-14T09:44:04.187Z,16.08
2018-05-14T09:46:31.629Z,16.01
2018-05-14T09:48:59.113Z,16.19
2018-05-14T09:51:26.553Z,16.27
2018-05-14T09:53:55.690Z,16.55
2018-05-14T09:56:24.886Z,17.54
2018-05-14T09:58:52.316Z,17.89
2018-05-14T10:01:19.922Z,17.92
2018-05-14T10:03:47.368Z,17.87
2018-05-14T10:06:16.126Z,17.99
2018-05-14T10:08:43.555Z,18.20
2018-05-14T10:11:11.190Z,18.33
2018-05-14T10:13:38.718Z,17.78
2018-05-14T10:16:06.566Z,17.11
2018-05-14T10:18:34.000Z,17.43
2018-05-14T10:21:01.395Z,17.81
2018-05-14T10:23:28.845Z,17.97
2018-05-14T10:25:57.057Z,18.52
2018-05-14T10:28:24.760Z,18.92
2018-05-14T10:30:52.225Z,19.09
2018-05-14T10:33:20.357Z,19.38
2018-05-14T10:35:47.806Z,19.53
2018-05-14T10:38:15.676Z,19.68
2018-05-14T10:40:43.138Z,19.44
2018-05-14T10:43:10.641Z,18.96
2018-05-14T10:45:38.083Z,18.90
2018-05-14T10:48:05.534Z,18.80
2018-05-14T10:50:41.712Z,18.69
2018-05-14T10:53:09.235Z,18.61
2018-05-14T10:55:36.659Z,18.26
2018-05-14T10:58:04.164Z,17.77
2018-05-14T11:00:31.652Z,17.83
2018-05-14T11:03:00.031Z,17.78
2018-05-14T11:05:27.487Z,17.80
2018-05-14T11:07:54.915Z,17.72
2018-05-14T11:10:23.327Z,17.79
2018-05-14T11:12:50.792Z,17.63
2018-05-14T11:15:18.216Z,17.80
2018-05-14T11:17:45.637Z,17.96
2018-05-14T11:20:13.091Z,18.65
2018-05-14T11:22:40.664Z,19.57
2018-05-14T11:25:08.074Z,19.68
2018-05-14T11:27:35.534Z,19.88
2018-05-14T11:30:02.976Z,20.19
2018-05-14T11:32:30.445Z,20.37
2018-05-14T11:34:59.235Z,20.67
2018-05-14T11:37:26.700Z,20.96
2018-05-14T11:39:54.197Z,21.00
2018-05-14T11:42:22.322Z,21.02
2018-05-14T11:44:49.731Z,20.51
2018-05-14T11:47:17.379Z,20.83
2018-05-14T11:49:45.189Z,19.97
2018-05-14T11:52:12.758Z,19.19
2018-05-14T11:54:40.217Z,19.30
2018-05-14T11:57:07.648Z,19.04
2018-05-14T12:02:07.114Z,18.84
2018-05-14T12:04:36.198Z,18.92
2018-05-14T12:07:03.753Z,18.39
2018-05-14T12:09:31.261Z,18.36
2018-05-14T12:11:58.681Z,18.58
2018-05-14T12:14:26.218Z,18.44
2018-05-14T12:16:53.840Z,18.27
2018-05-14T12:19:24.356Z,18.11
2018-05-14T12:21:51.793Z,18.09
2018-05-14T12:24:19.257Z,18.02
2018-05-14T12:26:48.496Z,17.95
2018-05-14T12:29:15.995Z,17.97
2018-05-14T12:31:43.547Z,18.04
2018-05-14T12:34:13.202Z,18.11
2018-05-14T12:36:40.671Z,18.35
2018-05-14T12:39:08.216Z,18.15
2018-05-14T12:41:35.660Z,17.93
2018-05-14T12:44:04.102Z,18.20
2018-05-14T12:46:31.525Z,18.46
2018-05-14T12:49:01.534Z,18.46
2018-05-14T12:51:28.997Z,18.57
2018-05-14T12:53:56.464Z,18.94
2018-05-14T12:56:23.914Z,19.69
2018-05-14T12:58:51.379Z,20.22
2018-05-14T13:01:18.800Z,20.44
2018-05-14T13:03:46.270Z,20.41
2018-05-14T13:06:13.705Z,20.20
2018-05-14T13:08:41.201Z,20.43
2018-05-14T13:11:08.795Z,20.62
2018-05-14T13:13:37.347Z,20.06
2018-05-14T13:16:04.830Z,19.60
2018-05-14T13:18:32.230Z,19.71
2018-05-14T13:20:59.702Z,19.98
2018-05-14T13:23:27.107Z,20.19
2018-05-14T13:25:56.305Z,19.71
2018-05-14T13:28:24.529Z,19.89
2018-05-14T13:30:51.939Z,20.06
2018-05-14T13:33:19.372Z,20.52
2018-05-14T13:35:46.809Z,20.95
2018-05-14T13:38:15.166Z,21.40
2018-05-14T13:40:43.555Z,21.65
2018-05-14T13:43:11.652Z,22.12
2018-05-14T13:45:39.098Z,22.13
2018-05-14T13:48:06.551Z,22.14
2018-05-14T13:50:34.024Z,22.06
2018-05-14T13:53:01.468Z,21.65
2018-05-14T13:55:30.245Z,21.38
2018-05-14T13:57:57.969Z,21.37
2018-05-14T14:00:25.504Z,21.25
2018-05-14T14:02:52.969Z,21.31
2018-05-14T14:05:21.629Z,21.37
2018-05-14T14:07:49.187Z,21.62
2018-05-14T14:10:16.686Z,21.38
2018-05-14T14:12:44.172Z,21.39
2018-05-14T14:15:11.726Z,21.26
2018-05-14T14:17:39.149Z,21.25
2018-05-14T14:20:06.626Z,21.27
2018-05-14T14:22:34.090Z,20.96
2018-05-14T14:25:01.574Z,20.28
2018-05-14T14:27:28.976Z,19.90
2018-05-14T14:29:56.992Z,20.02
2018-05-14T14:32:25.315Z,20.01
2018-05-14T14:34:52.767Z,20.23
2018-05-14T14:37:21.843Z,20.20
2018-05-14T14:39:49.280Z,19.98
2018-05-14T14:42:16.671Z,19.85
2018-05-14T14:44:44.109Z,19.80
2018-05-14T14:47:11.564Z,19.60
2018-05-14T14:49:39.038Z,19.46
2018-05-14T14:52:07.001Z,19.61
2018-05-14T14:54:35.839Z,19.84
2018-05-14T14:57:03.256Z,20.05
2018-05-14T14:59:30.710Z,19.81
2018-05-14T15:01:58.136Z,19.57
2018-05-14T15:04:25.568Z,19.34
2018-05-14T15:06:53.012Z,19.43
2018-05-14T15:09:20.445Z,19.42
2018-05-14T15:11:47.903Z,19.44
2018-05-14T15:14:15.358Z,19.30
2018-05-14T15:16:42.847Z,19.11
2018-05-14T15:19:10.548Z,19.08
2018-05-14T15:21:39.503Z,19.15
2018-05-14T15:24:07.289Z,18.72
2018-05-14T15:26:34.707Z,18.82
2018-05-14T15:29:02.303Z,18.90
2018-05-14T15:31:29.740Z,19.13
2018-05-14T15:33:57.263Z,19.12
2018-05-14T15:36:24.659Z,19.00
2018-05-14T15:38:52.798Z,19.21
2018-05-14T15:41:20.246Z,19.10
2018-05-14T15:43:47.898Z,18.77
2018-05-14T15:46:15.294Z,18.85
2018-05-14T15:48:42.775Z,18.96
2018-05-14T15:51:10.271Z,18.94
2018-05-14T15:53:37.662Z,18.63
2018-05-14T15:56:07.155Z,18.44
2018-05-14T15:58:34.632Z,18.37
2018-05-14T16:01:02.028Z,18.40
2018-05-14T16:03:29.433Z,18.28
2018-05-14T16:05:56.914Z,18.33
2018-05-14T16:08:33.082Z,18.05
2018-05-14T16:11:00.517Z,17.94
2018-05-14T16:13:27.987Z,17.85
2018-05-14T16:15:55.456Z,17.91
2018-05-14T16:18:25.259Z,18.05
2018-05-14T16:20:53.484Z,18.00
2018-05-14T16:23:20.919Z,17.88
2018-05-14T16:25:48.854Z,17.82
2018-05-14T16:28:16.295Z,17.75
2018-05-14T16:30:43.716Z,17.63
2018-05-14T16:33:11.179Z,17.79
2018-05-14T16:35:38.630Z,17.88
2018-05-14T16:38:06.084Z,17.88
2018-05-14T16:40:33.569Z,17.89
2018-05-14T16:43:00.981Z,17.75
2018-05-14T16:45:28.530Z,17.70
2018-05-14T16:47:55.940Z,17.55
2018-05-14T16:50:23.669Z,17.54
2018-05-14T16:52:51.079Z,17.48
2018-05-14T16:55:18.499Z,17.52
2018-05-14T16:57:46.083Z,17.64
2018-05-14T17:00:13.530Z,17.74
2018-05-14T17:02:40.945Z,17.68
2018-05-14T17:05:08.417Z,17.28
2018-05-14T17:07:35.872Z,16.96
2018-05-14T17:10:03.348Z,16.80
2018-05-14T17:12:31.433Z,16.78
2018-05-14T17:14:58.845Z,16.92
2018-05-14T17:17:26.328Z,16.83
2018-05-14T17:19:53.697Z,16.81
2018-05-14T17:22:21.094Z,16.86
2018-05-14T17:24:48.603Z,16.66
2018-05-14T17:27:16.069Z,16.56
2018-05-14T17:29:44.959Z,16.54
2018-05-14T17:32:12.440Z,16.57
2018-05-14T17:34:39.910Z,16.66
2018-05-14T17:37:07.427Z,16.57
2018-05-14T17:39:35.009Z,16.45
2018-05-14T17:42:02.442Z,16.44
2018-05-14T17:44:29.940Z,16.44
2018-05-14T17:46:57.397Z,16.33
2018-05-14T17:49:24.905Z,16.25
2018-05-14T17:51:52.328Z,16.22
2018-05-14T17:54:26.623Z,16.23
2018-05-14T17:56:54.040Z,16.12
2018-05-14T17:59:21.647Z,16.01
2018-05-14T18:01:49.032Z,15.86
2018-05-14T18:04:16.484Z,15.85
2018-05-14T18:06:43.908Z,15.81
2018-05-14T18:09:11.315Z,15.71
2018-05-14T18:11:38.760Z,15.61
2018-05-14T18:14:06.187Z,15.58
2018-05-14T18:16:33.711Z,15.55
2018-05-14T18:19:01.183Z,15.54
2018-05-14T18:21:34.239Z,15.46
2018-05-14T18:24:01.704Z,15.36
2018-05-14T18:26:34.729Z,15.24
2018-05-14T18:29:06.008Z,15.21
2018-05-14T18:31:33.406Z,15.09
2018-05-14T18:34:06.351Z,15.01
2018-05-14T18:36:33.861Z,14.87
2018-05-14T18:39:01.592Z,14.82
2018-05-14T18:41:29.710Z,14.75
2018-05-14T18:43:57.177Z,14.72
2018-05-14T18:46:25.094Z,14.72
2018-05-14T18:48:52.531Z,14.61
2018-05-14T18:51:19.966Z,14.59
2018-05-14T18:53:47.403Z,14.57
2018-05-14T18:56:15.858Z,14.61
2018-05-14T18:58:43.247Z,14.56
2018-05-14T19:01:10.744Z,14.58
2018-05-14T19:03:38.519Z,14.51
2018-05-14T19:06:05.948Z,14.48
2018-05-14T19:08:33.387Z,14.55
2018-05-14T19:11:06.561Z,14.62
2018-05-14T19:13:33.952Z,14.51
2018-05-14T19:16:07.031Z,14.59
2018-05-14T19:18:34.514Z,14.53
2018-05-14T19:21:02.494Z,14.44
2018-05-14T19:23:35.652Z,14.36
2018-05-14T19:26:03.169Z,14.25
2018-05-14T19:28:36.594Z,14.19
2018-05-14T19:31:04.119Z,14.07
2018-05-14T19:33:37.112Z,14.01
2018-05-14T19:36:04.550Z,14.06
2018-05-14T19:38:32.030Z,13.94
2018-05-14T19:40:59.428Z,13.95
2018-05-14T19:43:27.224Z,13.90
2018-05-14T19:45:54.718Z,13.86
2018-05-14T19:48:22.139Z,13.86
2018-05-14T19:50:49.639Z,13.86
2018-05-14T19:53:17.050Z,13.86
2018-05-14T19:55:45.488Z,13.77
2018-05-14T19:58:12.908Z,13.75
2018-05-14T20:00:40.342Z,13.76
2018-05-14T20:03:08.009Z,13.73
2018-05-14T20:05:35.473Z,13.70
2018-05-14T20:08:03.801Z,13.74
2018-05-14T20:10:31.264Z,13.76
2018-05-14T20:12:59.542Z,13.71
2018-05-14T20:15:27.064Z,13.68
2018-05-14T20:17:54.604Z,13.65
2018-05-14T20:20:22.008Z,13.55
2018-05-14T20:22:50.121Z,13.58
2018-05-14T20:25:17.540Z,13.51
2018-05-14T20:27:44.994Z,13.52
2018-05-14T20:30:12.491Z,13.49
2018-05-14T20:32:39.891Z,13.56
2018-05-14T20:35:07.322Z,13.47
2018-05-14T20:37:35.731Z,13.49
2018-05-14T20:40:03.207Z,13.51
2018-05-14T20:42:30.635Z,13.55
2018-05-14T20:44:58.133Z,13.53
2018-05-14T20:47:26.519Z,13.51
2018-05-14T20:49:53.965Z,13.54
2018-05-14T20:52:21.422Z,13.48
2018-05-14T20:54:48.814Z,13.45
2018-05-14T20:57:16.290Z,13.50
2018-05-14T20:59:49.287Z,13.48
2018-05-14T21:02:16.659Z,13.40
2018-05-14T21:04:46.212Z,13.40
2018-05-14T21:07:13.703Z,13.41
2018-05-14T21:09:41.137Z,13.39
2018-05-14T21:12:09.431Z,13.41
2018-05-14T21:14:36.943Z,13.42
2018-05-14T21:17:04.356Z,13.41
2018-05-14T21:19:31.792Z,13.47
2018-05-14T21:21:59.204Z,13.59
2018-05-14T21:24:26.649Z,13.59
2018-05-14T21:26:54.100Z,13.51
2018-05-14T21:29:21.581Z,13.34
2018-05-14T21:31:49.016Z,13.18
2018-05-14T21:34:17.512Z,13.13
2018-05-14T21:36:45.625Z,13.06
2018-05-14T21:39:13.044Z,13.03
2018-05-14T21:41:40.492Z,12.94
2018-05-14T21:44:07.954Z,12.93
2018-05-14T21:46:35.412Z,12.82
2018-05-14T21:49:02.908Z,12.81
2018-05-14T21:51:30.313Z,12.82
2018-05-14T21:53:57.838Z,12.83
2018-05-14T21:56:25.243Z,12.89
2018-05-14T21:58:52.701Z,13.03
2018-05-14T22:01:20.130Z,13.06
2018-05-14T22:03:47.581Z,13.06
2018-05-14T22:06:14.971Z,13.00
2018-05-14T22:08:42.462Z,12.94
2018-05-14T22:11:09.883Z,12.89
2018-05-14T22:13:37.275Z,12.93
2018-05-14T22:16:04.747Z,12.85
2018-05-14T22:18:32.176Z,12.82
2018-05-14T22:20:59.585Z,12.87
2018-05-14T22:23:27.042Z,12.88
2018-05-14T22:25:54.485Z,12.92
2018-05-14T22:28:21.912Z,12.95
2018-05-14T22:30:49.411Z,12.94
2018-05-14T22:33:16.795Z,12.92
2018-05-14T22:35:45.307Z,12.85
2018-05-14T22:38:14.250Z,12.77
2018-05-14T22:40:41.717Z,12.84
2018-05-14T22:43:09.123Z,12.84
2018-05-14T22:45:47.013Z,12.90
2018-05-14T22:48:14.458Z,12.92
2018-05-14T22:50:41.864Z,12.87
2018-05-14T22:53:09.266Z,12.92
2018-05-14T22:55:36.779Z,13.03
2018-05-14T22:58:04.231Z,12.91
2018-05-14T23:00:31.722Z,12.74
2018-05-14T23:02:59.185Z,12.77
2018-05-14T23:05:26.601Z,12.68
2018-05-14T23:07:54.031Z,12.64
2018-05-14T23:10:22.112Z,12.71
2018-05-14T23:12:49.573Z,12.59
2018-05-14T23:15:17.763Z,12.47
2018-05-14T23:17:45.188Z,12.42
2018-05-14T23:20:12.599Z,12.52
2018-05-14T23:22:40.844Z,12.54
2018-05-14T23:25:08.316Z,12.37
2018-05-14T23:27:35.770Z,12.27
2018-05-14T23:30:03.224Z,12.24
2018-05-14T23:32:30.720Z,12.38
2018-05-14T23:34:58.152Z,12.58
2018-05-14T23:37:25.621Z,12.74
2018-05-14T23:39:54.807Z,12.82
2018-05-14T23:42:22.277Z,12.87
2018-05-14T23:44:49.719Z,12.96
2018-05-14T23:47:17.145Z,13.02
2018-05-14T23:49:44.543Z,12.94
2018-05-14T23:52:11.995Z,12.83
2018-05-14T23:54:39.458Z,12.69
2018-05-14T23:57:07.306Z,12.72
2018-05-14T23:59:34.691Z,12.75
